createdAt,value
2019-05-26T00:00:18.082Z,17.19
2019-05-26T00:02:46.211Z,17.13
2019-05-26T00:05:14.682Z,17.10
2019-05-26T00:07:43.123Z,17.06
2019-05-26T00:10:13.566Z,17.02
2019-05-26T00:12:42.688Z,16.99
2019-05-26T00:15:11.022Z,16.94
2019-05-26T00:17:39.084Z,16.90
2019-05-26T00:20:07.530Z,16.85
2019-05-26T00:22:35.559Z,16.79
2019-05-26T00:25:03.855Z,16.74
2019-05-26T00:27:32.071Z,16.72
2019-05-26T00:30:00.314Z,16.67
2019-05-26T00:32:28.377Z,16.60
2019-05-26T00:34:56.972Z,16.57
2019-05-26T00:37:25.152Z,16.54
2019-05-26T00:39:53.182Z,16.51
2019-05-26T00:42:21.140Z,16.49
2019-05-26T00:44:49.566Z,16.47
2019-05-26T00:47:17.890Z,16.45
2019-05-26T00:49:46.285Z,16.41
2019-05-26T00:52:16.129Z,16.38
2019-05-26T00:54:44.233Z,16.34
2019-05-26T00:57:12.219Z,16.32
2019-05-26T00:59:40.304Z,16.30
2019-05-26T01:02:08.282Z,16.28
2019-05-26T01:04:36.415Z,16.26
2019-05-26T01:07:04.388Z,16.24
2019-05-26T01:09:32.661Z,16.21
2019-05-26T01:12:00.632Z,16.15
2019-05-26T01:14:28.768Z,16.13
2019-05-26T01:16:57.866Z,16.11
2019-05-26T01:19:26.126Z,16.08
2019-05-26T01:21:56.348Z,16.05
2019-05-26T01:24:24.445Z,16.02
2019-05-26T01:26:52.467Z,15.98
2019-05-26T01:29:20.928Z,15.93
2019-05-26T01:31:49.021Z,15.91
2019-05-26T01:34:17.097Z,15.88
2019-05-26T01:36:45.507Z,15.83
2019-05-26T01:39:13.580Z,15.84
2019-05-26T01:41:42.015Z,15.80
2019-05-26T01:44:09.983Z,15.75
2019-05-26T01:46:38.442Z,15.71
2019-05-26T01:49:06.441Z,15.69
2019-05-26T01:51:34.517Z,15.69
2019-05-26T01:54:03.406Z,15.69
2019-05-26T01:56:31.535Z,15.68
2019-05-26T01:58:59.921Z,15.66
2019-05-26T02:01:28.345Z,15.66
2019-05-26T02:03:56.427Z,15.62
2019-05-26T02:06:24.768Z,15.60
2019-05-26T02:08:53.089Z,15.58
2019-05-26T02:11:22.699Z,15.56
2019-05-26T02:13:50.713Z,15.56
2019-05-26T02:16:18.869Z,15.52
2019-05-26T02:18:46.990Z,15.50
2019-05-26T02:21:15.120Z,15.48
2019-05-26T02:23:43.414Z,15.48
2019-05-26T02:26:11.539Z,15.49
2019-05-26T02:28:39.859Z,15.47
2019-05-26T02:31:08.600Z,15.44
2019-05-26T02:33:36.786Z,15.42
2019-05-26T02:36:06.281Z,15.41
2019-05-26T02:38:34.425Z,15.40
2019-05-26T02:41:02.748Z,15.39
2019-05-26T02:43:31.040Z,15.35
2019-05-26T02:45:59.219Z,15.35
2019-05-26T02:48:27.270Z,15.34
2019-05-26T02:50:55.603Z,15.32
2019-05-26T02:53:24.780Z,15.27
2019-05-26T02:55:53.135Z,15.26
2019-05-26T02:58:21.143Z,15.23
2019-05-26T03:00:49.292Z,15.22
2019-05-26T03:03:17.288Z,15.21
2019-05-26T03:05:45.887Z,15.20
2019-05-26T03:08:15.170Z,15.19
2019-05-26T03:10:44.343Z,15.16
2019-05-26T03:13:16.855Z,15.12
2019-05-26T03:15:47.625Z,15.10
2019-05-26T03:18:17.191Z,15.10
2019-05-26T03:20:45.588Z,15.08
2019-05-26T03:23:15.368Z,15.06
2019-05-26T03:25:43.461Z,15.01
2019-05-26T03:28:13.051Z,14.97
2019-05-26T03:30:42.058Z,14.95
2019-05-26T03:33:10.561Z,14.94
2019-05-26T03:35:38.975Z,14.92
2019-05-26T03:38:07.042Z,14.90
2019-05-26T03:40:35.230Z,14.87
2019-05-26T03:43:04.601Z,14.82
2019-05-26T03:46:22.484Z,14.79
2019-05-26T03:48:52.355Z,14.79
2019-05-26T03:51:22.002Z,14.73
2019-05-26T03:53:50.094Z,14.68
2019-05-26T03:56:19.611Z,14.70
2019-05-26T03:58:48.930Z,14.69
2019-05-26T04:01:17.019Z,14.70
2019-05-26T04:03:46.516Z,14.70
2019-05-26T04:06:14.517Z,14.69
2019-05-26T04:08:42.583Z,14.69
2019-05-26T04:11:11.024Z,14.66
2019-05-26T04:13:39.632Z,14.65
2019-05-26T04:16:08.907Z,14.63
2019-05-26T04:18:38.814Z,14.62
2019-05-26T04:21:06.804Z,14.61
2019-05-26T04:23:35.222Z,14.59
2019-05-26T04:26:03.357Z,14.57
2019-05-26T04:28:33.155Z,14.59
2019-05-26T04:31:01.181Z,14.61
2019-05-26T04:33:29.422Z,14.63
2019-05-26T04:35:57.792Z,14.66
2019-05-26T04:38:25.904Z,14.68
2019-05-26T04:40:53.974Z,14.69
2019-05-26T04:43:23.186Z,14.69
2019-05-26T04:45:51.305Z,14.69
2019-05-26T04:48:19.454Z,14.68
2019-05-26T04:50:47.432Z,14.70
2019-05-26T04:53:15.854Z,14.71
2019-05-26T04:55:43.874Z,14.74
2019-05-26T04:58:12.040Z,14.77
2019-05-26T05:00:41.683Z,14.77
2019-05-26T05:03:09.847Z,14.79
2019-05-26T05:05:37.996Z,14.80
2019-05-26T05:08:06.097Z,14.84
2019-05-26T05:10:42.454Z,14.89
2019-05-26T05:13:06.648Z,14.94
2019-05-26T05:15:34.659Z,14.98
2019-05-26T05:18:03.061Z,15.04
2019-05-26T05:20:32.602Z,15.10
2019-05-26T05:23:00.682Z,15.16
2019-05-26T05:25:28.797Z,15.21
2019-05-26T05:27:56.852Z,15.26
2019-05-26T05:30:25.096Z,15.29
2019-05-26T05:32:53.394Z,15.32
2019-05-26T05:35:21.630Z,15.36
2019-05-26T05:37:49.847Z,15.40
2019-05-26T05:40:19.853Z,15.46
2019-05-26T05:42:47.918Z,15.52
2019-05-26T05:45:16.539Z,15.61
2019-05-26T05:47:44.814Z,15.68
2019-05-26T05:50:13.458Z,15.75
2019-05-26T05:52:41.616Z,15.84
2019-05-26T05:55:11.777Z,15.94
2019-05-26T05:57:39.831Z,16.02
2019-05-26T06:00:09.150Z,16.10
2019-05-26T06:02:37.142Z,16.17
2019-05-26T06:05:06.903Z,16.23
2019-05-26T06:07:35.010Z,16.29
2019-05-26T06:10:05.065Z,16.38
2019-05-26T06:12:34.442Z,16.50
2019-05-26T06:15:04.843Z,16.63
2019-05-26T06:17:32.877Z,16.75
2019-05-26T06:20:00.951Z,16.90
2019-05-26T06:22:28.999Z,17.03
2019-05-26T06:24:57.185Z,17.18
2019-05-26T06:27:25.355Z,17.33
2019-05-26T06:29:58.855Z,17.48
2019-05-26T06:32:23.668Z,17.64
2019-05-26T06:34:51.801Z,17.77
2019-05-26T06:37:19.816Z,17.93
2019-05-26T06:39:49.649Z,18.08
2019-05-26T06:42:17.668Z,18.24
2019-05-26T06:44:53.618Z,18.40
2019-05-26T06:47:15.799Z,18.57
2019-05-26T06:49:44.617Z,18.77
2019-05-26T06:52:12.658Z,18.94
2019-05-26T06:54:40.777Z,19.13
2019-05-26T06:57:08.817Z,19.32
2019-05-26T06:59:36.878Z,19.53
2019-05-26T07:02:04.959Z,19.75
2019-05-26T07:04:34.806Z,19.96
2019-05-26T07:07:03.506Z,20.18
2019-05-26T07:09:31.958Z,20.41
2019-05-26T07:12:00.841Z,20.62
2019-05-26T07:14:28.905Z,20.81
2019-05-26T07:16:57.118Z,20.98
2019-05-26T07:19:25.164Z,21.11
2019-05-26T07:21:54.426Z,21.26
2019-05-26T07:24:22.608Z,21.46
2019-05-26T07:26:51.772Z,21.70
2019-05-26T07:29:19.816Z,21.97
2019-05-26T07:31:48.233Z,22.21
2019-05-26T07:34:17.374Z,22.43
2019-05-26T07:36:45.509Z,22.61
2019-05-26T07:39:13.535Z,22.84
2019-05-26T07:41:41.844Z,23.06
2019-05-26T07:44:10.230Z,23.23
2019-05-26T07:46:38.417Z,23.38
2019-05-26T07:49:06.750Z,23.58
2019-05-26T07:51:34.805Z,23.78
2019-05-26T07:54:03.118Z,23.93
2019-05-26T07:56:34.706Z,24.11
2019-05-26T07:59:03.178Z,24.29
2019-05-26T08:01:36.288Z,24.48
2019-05-26T08:04:03.119Z,24.70
2019-05-26T08:06:31.210Z,24.85
2019-05-26T08:08:59.241Z,25.04
2019-05-26T08:11:27.315Z,25.21
2019-05-26T08:13:55.316Z,25.40
2019-05-26T08:16:24.645Z,25.56
2019-05-26T08:18:52.690Z,25.76
2019-05-26T08:21:21.249Z,25.96
2019-05-26T08:23:49.358Z,26.07
2019-05-26T08:26:17.611Z,26.09
2019-05-26T08:28:45.704Z,26.21
2019-05-26T08:31:13.921Z,26.40
2019-05-26T08:33:42.482Z,26.62
2019-05-26T08:36:10.526Z,26.89
2019-05-26T08:38:38.648Z,27.16
2019-05-26T08:41:06.679Z,27.40
2019-05-26T08:43:35.201Z,27.58
2019-05-26T08:46:03.244Z,27.67
2019-05-26T08:48:31.626Z,27.77
2019-05-26T08:50:59.639Z,27.99
2019-05-26T08:53:27.888Z,28.27
2019-05-26T08:55:55.895Z,28.58
2019-05-26T08:58:23.998Z,28.90
2019-05-26T09:00:52.368Z,29.16
2019-05-26T09:03:20.555Z,29.42
2019-05-26T09:05:48.563Z,29.57
2019-05-26T09:08:16.682Z,29.75
2019-05-26T09:10:44.710Z,29.99
2019-05-26T09:13:12.828Z,30.21
2019-05-26T09:15:41.908Z,30.42
2019-05-26T09:18:10.350Z,30.64
2019-05-26T09:20:38.347Z,30.82
2019-05-26T09:23:06.767Z,30.98
2019-05-26T09:25:34.800Z,31.09
2019-05-26T09:28:03.247Z,31.16
2019-05-26T09:30:31.568Z,31.20
2019-05-26T09:32:59.652Z,31.16
2019-05-26T09:35:27.648Z,31.14
2019-05-26T09:37:55.707Z,31.18
2019-05-26T09:40:23.688Z,31.00
2019-05-26T09:42:52.141Z,30.51
2019-05-26T09:45:21.979Z,30.52
2019-05-26T09:47:50.310Z,30.64
2019-05-26T09:50:18.877Z,30.82
2019-05-26T09:52:46.969Z,30.99
2019-05-26T09:55:15.500Z,31.12
2019-05-26T09:57:43.972Z,31.24
2019-05-26T10:00:16.189Z,31.25
2019-05-26T10:02:44.513Z,31.23
2019-05-26T10:05:13.940Z,31.19
2019-05-26T10:07:42.460Z,31.21
2019-05-26T10:10:11.297Z,31.25
2019-05-26T10:12:39.647Z,31.34
2019-05-26T10:15:08.781Z,31.49
2019-05-26T10:17:37.051Z,31.62
2019-05-26T10:20:06.435Z,31.76
2019-05-26T10:22:36.451Z,31.88
2019-05-26T10:25:06.971Z,31.99
2019-05-26T10:27:34.971Z,32.09
2019-05-26T10:30:04.812Z,32.19
2019-05-26T10:32:32.913Z,32.33
2019-05-26T10:35:01.046Z,32.51
2019-05-26T10:37:30.845Z,32.68
2019-05-26T10:40:00.649Z,32.84
2019-05-26T10:42:29.018Z,32.97
2019-05-26T10:44:57.603Z,33.03
2019-05-26T10:47:27.278Z,33.10
2019-05-26T10:49:55.615Z,33.19
2019-05-26T10:52:23.985Z,33.28
2019-05-26T10:54:52.105Z,33.34
2019-05-26T10:57:20.233Z,33.43
2019-05-26T10:59:48.330Z,33.45
2019-05-26T11:02:16.445Z,33.52
2019-05-26T11:04:44.582Z,33.62
2019-05-26T11:07:13.022Z,33.79
2019-05-26T11:09:41.493Z,34.01
2019-05-26T11:12:09.662Z,34.18
2019-05-26T11:14:38.036Z,34.35
2019-05-26T11:17:07.156Z,34.49
2019-05-26T11:19:35.680Z,34.59
2019-05-26T11:22:06.576Z,34.65
2019-05-26T11:24:36.232Z,34.67
2019-05-26T11:27:09.928Z,34.70
2019-05-26T11:29:34.563Z,34.74
2019-05-26T11:32:04.072Z,34.84
2019-05-26T11:34:33.281Z,34.95
2019-05-26T11:37:01.304Z,35.05
2019-05-26T11:39:29.511Z,35.12
2019-05-26T11:42:10.555Z,35.12
2019-05-26T11:44:28.683Z,35.15
2019-05-26T11:46:56.793Z,35.18
2019-05-26T11:49:25.000Z,35.17
2019-05-26T11:51:54.160Z,35.17
2019-05-26T11:54:22.225Z,35.11
2019-05-26T11:56:50.733Z,35.06
2019-05-26T11:59:20.384Z,35.00
2019-05-26T12:01:48.874Z,35.00
2019-05-26T12:04:16.990Z,35.04
2019-05-26T12:06:45.101Z,35.06
2019-05-26T12:09:13.339Z,35.13
2019-05-26T12:11:41.383Z,35.11
2019-05-26T12:14:09.401Z,35.13
2019-05-26T12:16:41.491Z,35.16
2019-05-26T12:19:09.592Z,35.27
2019-05-26T12:21:38.040Z,35.39
2019-05-26T12:24:06.035Z,35.48
2019-05-26T12:26:34.264Z,35.57
2019-05-26T12:29:02.260Z,35.67
2019-05-26T12:31:30.356Z,35.69
2019-05-26T12:33:58.351Z,35.72
2019-05-26T12:36:28.156Z,35.67
2019-05-26T12:38:56.389Z,35.80
2019-05-26T12:41:24.502Z,35.94
2019-05-26T12:43:52.496Z,36.04
2019-05-26T12:46:20.933Z,36.13
2019-05-26T12:48:48.959Z,36.17
2019-05-26T12:51:17.057Z,36.07
2019-05-26T12:53:45.165Z,36.11
2019-05-26T12:56:15.249Z,36.18
2019-05-26T12:58:43.279Z,36.25
2019-05-26T13:01:11.364Z,36.29
2019-05-26T13:03:40.659Z,36.32
2019-05-26T13:06:08.699Z,36.26
2019-05-26T13:08:38.304Z,36.22
2019-05-26T13:11:06.485Z,36.26
2019-05-26T13:13:34.536Z,36.27
2019-05-26T13:16:02.680Z,36.26
2019-05-26T13:18:30.780Z,36.24
2019-05-26T13:20:58.802Z,36.22
2019-05-26T13:23:26.948Z,36.19
2019-05-26T13:25:55.161Z,36.18
2019-05-26T13:28:23.310Z,36.19
2019-05-26T13:30:51.952Z,36.18
2019-05-26T13:33:21.686Z,36.15
2019-05-26T13:35:49.910Z,36.17
2019-05-26T13:38:18.097Z,36.18
2019-05-26T13:40:46.176Z,36.08
2019-05-26T13:43:14.342Z,35.94
2019-05-26T13:45:42.460Z,35.93
2019-05-26T13:48:10.708Z,35.99
2019-05-26T13:50:38.993Z,35.97
2019-05-26T13:53:07.162Z,35.69
2019-05-26T13:55:35.206Z,35.55
2019-05-26T13:58:03.250Z,35.01
2019-05-26T14:00:31.298Z,34.57
2019-05-26T14:02:59.294Z,34.37
2019-05-26T14:05:27.767Z,34.41
2019-05-26T14:07:55.735Z,34.16
2019-05-26T14:10:32.956Z,34.03
2019-05-26T14:13:01.868Z,34.10
2019-05-26T14:15:37.996Z,33.97
2019-05-26T14:18:01.110Z,33.59
2019-05-26T14:20:35.305Z,33.51
2019-05-26T14:23:06.256Z,33.36
2019-05-26T14:25:43.161Z,33.10
2019-05-26T14:28:11.270Z,32.94
2019-05-26T14:30:39.642Z,32.96
2019-05-26T14:33:07.900Z,32.98
2019-05-26T14:35:36.198Z,33.06
2019-05-26T14:38:04.436Z,33.13
2019-05-26T14:40:32.626Z,33.20
2019-05-26T14:43:00.704Z,33.22
2019-05-26T14:45:28.935Z,33.20
2019-05-26T14:47:57.529Z,33.17
2019-05-26T14:50:25.857Z,33.10
2019-05-26T14:52:53.895Z,32.67
2019-05-26T14:55:22.212Z,32.49
2019-05-26T14:57:50.257Z,32.23
2019-05-26T15:00:19.966Z,32.08
2019-05-26T15:02:48.024Z,31.83
2019-05-26T15:05:16.652Z,31.76
2019-05-26T15:07:44.646Z,31.70
2019-05-26T15:10:13.233Z,31.65
2019-05-26T15:12:41.217Z,31.63
2019-05-26T15:15:11.010Z,31.60
2019-05-26T15:17:39.040Z,31.52
2019-05-26T15:20:08.914Z,31.45
2019-05-26T15:22:38.514Z,31.33
2019-05-26T15:25:07.595Z,31.22
2019-05-26T15:27:35.975Z,31.11
2019-05-26T15:30:06.117Z,31.04
2019-05-26T15:32:34.151Z,30.94
2019-05-26T15:35:02.468Z,30.82
2019-05-26T15:37:30.577Z,30.73
2019-05-26T15:39:58.671Z,30.64
2019-05-26T15:42:26.808Z,30.53
2019-05-26T15:44:55.044Z,30.35
2019-05-26T15:47:23.050Z,30.23
2019-05-26T15:49:51.361Z,30.13
2019-05-26T15:52:19.543Z,30.06
2019-05-26T15:54:47.731Z,30.03
2019-05-26T15:57:15.760Z,29.98
2019-05-26T15:59:43.856Z,29.91
2019-05-26T16:02:11.879Z,29.83
2019-05-26T16:04:44.977Z,29.75
2019-05-26T16:07:12.195Z,29.68
2019-05-26T16:09:40.409Z,29.61
2019-05-26T16:12:08.454Z,29.55
2019-05-26T16:14:38.448Z,29.48
2019-05-26T16:17:07.693Z,29.37
2019-05-26T16:19:35.856Z,29.28
2019-05-26T16:22:03.931Z,29.18
2019-05-26T16:24:32.455Z,29.09
2019-05-26T16:27:17.855Z,29.03
2019-05-26T16:29:30.764Z,28.96
2019-05-26T16:31:59.064Z,28.90
2019-05-26T16:34:27.199Z,28.86
2019-05-26T16:36:55.315Z,28.82
2019-05-26T16:39:36.112Z,28.78
2019-05-26T16:41:53.398Z,28.74
2019-05-26T16:44:21.380Z,28.70
2019-05-26T16:46:56.534Z,28.64
2019-05-26T16:49:21.107Z,28.56
2019-05-26T16:51:49.218Z,28.51
2019-05-26T16:54:18.553Z,28.45
2019-05-26T16:56:46.610Z,28.41
2019-05-26T16:59:14.896Z,28.32
2019-05-26T17:01:43.038Z,28.25
2019-05-26T17:04:11.049Z,28.21
2019-05-26T17:06:40.764Z,28.18
2019-05-26T17:09:10.251Z,28.13
2019-05-26T17:11:38.456Z,28.09
2019-05-26T17:14:06.523Z,28.02
2019-05-26T17:16:36.204Z,27.97
2019-05-26T17:19:04.286Z,27.91
2019-05-26T17:21:32.456Z,27.84
2019-05-26T17:24:00.614Z,27.78
2019-05-26T17:26:28.974Z,27.74
2019-05-26T17:28:57.538Z,27.70
2019-05-26T17:31:26.915Z,27.67
2019-05-26T17:33:55.195Z,27.62
2019-05-26T17:36:23.395Z,27.57
2019-05-26T17:38:51.511Z,27.52
2019-05-26T17:41:20.041Z,27.47
2019-05-26T17:43:48.054Z,27.42
2019-05-26T17:46:16.603Z,27.37
2019-05-26T17:48:45.095Z,27.32
2019-05-26T17:51:13.257Z,27.27
2019-05-26T17:53:41.454Z,27.21
2019-05-26T17:56:10.015Z,27.15
2019-05-26T17:58:39.039Z,27.08
2019-05-26T18:01:07.171Z,27.01
2019-05-26T18:03:35.531Z,26.94
2019-05-26T18:06:03.949Z,26.89
2019-05-26T18:08:35.914Z,26.82
2019-05-26T18:11:02.229Z,26.76
2019-05-26T18:13:30.337Z,26.68
2019-05-26T18:15:59.453Z,26.63
2019-05-26T18:18:28.906Z,26.57
2019-05-26T18:20:57.055Z,26.52
2019-05-26T18:23:25.085Z,26.48
2019-05-26T18:25:53.332Z,26.43
2019-05-26T18:28:21.685Z,26.35
2019-05-26T18:30:50.026Z,26.29
2019-05-26T18:33:18.199Z,26.23
2019-05-26T18:35:46.360Z,26.17
2019-05-26T18:38:14.584Z,26.12
2019-05-26T18:40:42.640Z,26.07
2019-05-26T18:43:10.850Z,26.01
2019-05-26T18:45:38.887Z,25.96
2019-05-26T18:48:07.149Z,25.90
2019-05-26T18:50:35.334Z,25.85
2019-05-26T18:53:03.612Z,25.79
2019-05-26T18:55:31.985Z,25.74
2019-05-26T18:58:00.481Z,25.66
2019-05-26T19:00:30.883Z,25.58
2019-05-26T19:02:59.061Z,25.50
2019-05-26T19:05:33.767Z,25.41
2019-05-26T19:07:57.283Z,25.35
2019-05-26T19:10:25.433Z,25.26
2019-05-26T19:12:53.982Z,25.20
2019-05-26T19:15:22.042Z,25.12
2019-05-26T19:17:51.353Z,25.04
2019-05-26T19:20:19.755Z,24.95
2019-05-26T19:22:48.027Z,24.87
2019-05-26T19:25:16.312Z,24.80
2019-05-26T19:27:44.540Z,24.73
2019-05-26T19:30:13.065Z,24.67
2019-05-26T19:32:41.666Z,24.58
2019-05-26T19:35:11.616Z,24.52
2019-05-26T19:37:40.010Z,24.44
2019-05-26T19:40:09.173Z,24.37
2019-05-26T19:42:39.744Z,24.30
2019-05-26T19:45:08.145Z,24.22
2019-05-26T19:47:36.337Z,24.13
2019-05-26T19:50:05.144Z,24.06
2019-05-26T19:52:33.452Z,23.99
2019-05-26T19:55:01.862Z,23.90
2019-05-26T19:57:30.378Z,23.82
2019-05-26T19:59:58.441Z,23.74
2019-05-26T20:02:26.707Z,23.67
2019-05-26T20:04:55.857Z,23.62
2019-05-26T20:07:23.962Z,23.55
2019-05-26T20:09:51.986Z,23.46
2019-05-26T20:12:20.515Z,23.39
2019-05-26T20:14:48.966Z,23.31
2019-05-26T20:17:17.163Z,23.23
2019-05-26T20:19:45.292Z,23.13
2019-05-26T20:22:13.830Z,23.08
2019-05-26T20:24:42.308Z,23.02
2019-05-26T20:27:10.632Z,22.99
2019-05-26T20:29:39.017Z,22.95
2019-05-26T20:32:08.294Z,22.91
2019-05-26T20:34:36.652Z,22.86
2019-05-26T20:37:04.878Z,22.80
2019-05-26T20:39:32.931Z,22.73
2019-05-26T20:42:01.367Z,22.66
2019-05-26T20:44:29.557Z,22.59
2019-05-26T20:46:57.620Z,22.50
2019-05-26T20:49:25.746Z,22.43
2019-05-26T20:51:54.868Z,22.36
2019-05-26T20:54:23.034Z,22.30
2019-05-26T20:56:51.203Z,22.24
2019-05-26T20:59:19.778Z,22.18
2019-05-26T21:01:47.828Z,22.07
2019-05-26T21:04:23.079Z,22.00
2019-05-26T21:06:52.332Z,21.92
2019-05-26T21:09:20.730Z,21.86
2019-05-26T21:11:49.170Z,21.76
2019-05-26T21:14:17.291Z,21.63
2019-05-26T21:16:45.424Z,21.53
2019-05-26T21:19:14.065Z,21.39
2019-05-26T21:21:42.163Z,21.25
2019-05-26T21:24:11.172Z,21.11
2019-05-26T21:26:40.837Z,21.01
2019-05-26T21:29:09.535Z,20.91
2019-05-26T21:31:37.628Z,20.82
2019-05-26T21:34:07.821Z,20.71
2019-05-26T21:36:35.921Z,20.63
2019-05-26T21:39:07.372Z,20.54
2019-05-26T21:41:35.828Z,20.46
2019-05-26T21:44:04.563Z,20.40
2019-05-26T21:46:32.569Z,20.37
2019-05-26T21:49:00.763Z,20.33
2019-05-26T21:51:30.044Z,20.31
2019-05-26T21:53:58.106Z,20.29
2019-05-26T21:56:26.318Z,20.25
2019-05-26T21:58:54.522Z,20.24
2019-05-26T22:01:22.673Z,20.20
2019-05-26T22:03:51.978Z,20.16
2019-05-26T22:06:20.366Z,20.09
2019-05-26T22:08:48.564Z,20.07
2019-05-26T22:11:17.042Z,20.06
2019-05-26T22:13:45.375Z,20.03
2019-05-26T22:16:14.180Z,19.98
2019-05-26T22:18:42.596Z,19.94
2019-05-26T22:21:10.818Z,19.90
2019-05-26T22:23:38.944Z,19.87
2019-05-26T22:26:07.077Z,19.84
2019-05-26T22:28:35.334Z,19.75
2019-05-26T22:31:03.872Z,19.72
2019-05-26T22:33:33.680Z,19.70
2019-05-26T22:36:01.826Z,19.67
2019-05-26T22:38:29.954Z,19.64
2019-05-26T22:40:58.109Z,19.60
2019-05-26T22:43:26.370Z,19.54
2019-05-26T22:45:54.699Z,19.53
2019-05-26T22:48:22.965Z,19.50
2019-05-26T22:50:51.186Z,19.47
2019-05-26T22:53:19.159Z,19.42
2019-05-26T22:55:47.329Z,19.39
2019-05-26T22:58:15.322Z,19.37
2019-05-26T23:00:44.835Z,19.34
2019-05-26T23:03:12.825Z,19.29
2019-05-26T23:05:41.161Z,19.25
2019-05-26T23:08:09.458Z,19.22
2019-05-26T23:10:37.608Z,19.19
2019-05-26T23:13:05.901Z,19.14
2019-05-26T23:15:35.170Z,19.09
2019-05-26T23:18:03.243Z,19.07
2019-05-26T23:20:31.250Z,19.06
2019-05-26T23:22:59.362Z,19.05
2019-05-26T23:25:27.793Z,19.04
2019-05-26T23:27:55.938Z,19.02
2019-05-26T23:30:24.131Z,19.01
2019-05-26T23:32:52.360Z,19.01
2019-05-26T23:35:20.500Z,19.01
2019-05-26T23:37:49.034Z,18.99
2019-05-26T23:40:17.023Z,19.00
2019-05-26T23:42:45.260Z,19.01
2019-05-26T23:45:13.382Z,19.00
2019-05-26T23:47:41.936Z,18.99
2019-05-26T23:50:10.130Z,18.99
2019-05-26T23:52:38.853Z,18.99
2019-05-26T23:55:07.250Z,18.99
2019-05-26T23:57:35.504Z,18.97
